createdAt,value
2018-07-02T00:00:12.946Z,96248.23
2018-07-02T00:02:41.507Z,96245.67
2018-07-02T00:05:12.209Z,96245.55
2018-07-02T00:07:42.031Z,96246.02
2018-07-02T00:10:11.439Z,96244.03
2018-07-02T00:12:40.964Z,96248.37
2018-07-02T00:15:09.621Z,96246.51
2018-07-02T00:17:38.580Z,96250.95
2018-07-02T00:20:08.216Z,96238.00
2018-07-02T00:22:37.029Z,96233.00
2018-07-02T00:25:06.929Z,96226.04
2018-07-02T00:27:36.333Z,96229.20
2018-07-02T00:30:05.472Z,96220.55
2018-07-02T00:32:34.027Z,96226.88
2018-07-02T00:35:03.835Z,96228.49
2018-07-02T00:37:32.978Z,96231.18
2018-07-02T00:40:03.997Z,96230.73
2018-07-02T00:42:33.680Z,96228.86
2018-07-02T00:45:03.281Z,96227.58
2018-07-02T00:47:32.116Z,96227.91
2018-07-02T00:50:00.781Z,96224.56
2018-07-02T00:52:29.723Z,96227.70
2018-07-02T00:54:59.077Z,96223.27
2018-07-02T00:57:28.693Z,96220.59
2018-07-02T01:00:07.207Z,96218.48
2018-07-02T01:02:35.897Z,96208.83
2018-07-02T01:05:05.645Z,96211.39
2018-07-02T01:07:34.295Z,96213.02
2018-07-02T01:10:03.174Z,96212.30
2018-07-02T01:12:31.844Z,96212.91
2018-07-02T01:15:02.434Z,96205.09
2018-07-02T01:20:21.444Z,96201.96
2018-07-02T01:22:51.716Z,96201.14
2018-07-02T01:25:21.805Z,96203.13
2018-07-02T01:27:50.806Z,96198.56
2018-07-02T01:30:19.760Z,96201.85
2018-07-02T01:32:48.504Z,96201.47
2018-07-02T01:35:17.211Z,96206.25
2018-07-02T01:37:46.737Z,96209.50
2018-07-02T01:40:16.014Z,96209.49
2018-07-02T01:42:45.688Z,96209.74
2018-07-02T01:45:14.421Z,96205.31
2018-07-02T01:47:43.274Z,96201.47
2018-07-02T01:50:11.890Z,96204.48
2018-07-02T01:52:40.980Z,96202.62
2018-07-02T01:55:09.679Z,96195.30
2018-07-02T01:57:38.307Z,96200.19
2018-07-02T02:00:07.012Z,96195.06
2018-07-02T02:02:35.736Z,96194.48
2018-07-02T02:05:05.294Z,96194.48
2018-07-02T02:07:33.969Z,96191.34
2018-07-02T02:10:02.727Z,96189.48
2018-07-02T02:12:31.348Z,96188.08
2018-07-02T02:14:59.963Z,96190.89
2018-07-02T02:17:28.576Z,96185.30
2018-07-02T02:19:57.219Z,96187.83
2018-07-02T02:22:25.795Z,96190.17
2018-07-02T02:24:54.367Z,96191.69
2018-07-02T02:27:22.949Z,96185.25
2018-07-02T02:29:51.508Z,96182.69
2018-07-02T02:32:20.059Z,96184.80
2018-07-02T02:34:48.680Z,96181.30
2018-07-02T02:37:17.288Z,96181.30
2018-07-02T02:39:46.084Z,96176.30
2018-07-02T02:42:14.871Z,96180.11
2018-07-02T02:44:43.828Z,96170.80
2018-07-02T02:47:12.495Z,96170.59
2018-07-02T02:49:41.119Z,96170.00
2018-07-02T02:52:09.667Z,96166.95
2018-07-02T02:54:38.324Z,96171.05
2018-07-02T02:57:06.948Z,96165.44
2018-07-02T02:59:35.547Z,96165.45
2018-07-02T03:02:04.144Z,96159.17
2018-07-02T03:04:32.682Z,96163.92
2018-07-02T03:07:01.207Z,96164.87
2018-07-02T03:09:30.018Z,96164.98
2018-07-02T03:11:58.573Z,96163.81
2018-07-02T03:14:27.181Z,96170.34
2018-07-02T03:16:55.709Z,96162.05
2018-07-02T03:19:24.267Z,96164.72
2018-07-02T03:21:53.164Z,96164.92
2018-07-02T03:24:21.733Z,96166.70
2018-07-02T03:26:50.342Z,96157.50
2018-07-02T03:29:19.015Z,96158.64
2018-07-02T03:31:47.775Z,96158.05
2018-07-02T03:34:16.436Z,96169.42
2018-07-02T03:36:45.072Z,96165.16
2018-07-02T03:39:13.648Z,96167.34
2018-07-02T03:41:42.208Z,96163.38
2018-07-02T03:44:10.755Z,96171.42
2018-07-02T03:46:39.379Z,96168.17
2018-07-02T03:49:07.935Z,96167.48
2018-07-02T03:51:36.487Z,96167.48
2018-07-02T03:54:05.241Z,96163.88
2018-07-02T03:56:33.983Z,96163.33
2018-07-02T03:59:02.579Z,96159.59
2018-07-02T04:01:31.496Z,96157.03
2018-07-02T04:04:00.036Z,96162.06
2018-07-02T04:06:29.451Z,96157.64
2018-07-02T04:08:58.051Z,96158.55
2018-07-02T04:11:26.679Z,96163.69
2018-07-02T04:13:55.298Z,96156.01
2018-07-02T04:16:23.968Z,96155.67
2018-07-02T04:18:56.643Z,96153.59
2018-07-02T04:21:25.191Z,96150.91
2018-07-02T04:23:53.784Z,96152.05
2018-07-02T04:26:22.417Z,96148.09
2018-07-02T04:28:51.229Z,96142.06
2018-07-02T04:31:19.863Z,96145.31
2018-07-02T04:33:48.416Z,96141.95
2018-07-02T04:36:17.052Z,96145.11
2018-07-02T04:38:45.575Z,96136.05
2018-07-02T04:41:14.167Z,96143.36
2018-07-02T04:43:42.724Z,96137.45
2018-07-02T04:46:11.296Z,96138.82
2018-07-02T04:48:39.816Z,96131.50
2018-07-02T04:51:08.516Z,96140.45
2018-07-02T04:53:37.072Z,96134.64
2018-07-02T04:56:05.784Z,96136.64
2018-07-02T04:58:34.431Z,96134.06
2018-07-02T05:01:02.957Z,96134.98
2018-07-02T05:03:31.519Z,96134.16
2018-07-02T05:06:00.090Z,96140.33
2018-07-02T05:08:28.593Z,96135.99
2018-07-02T05:10:57.165Z,96130.40
2018-07-02T05:13:25.717Z,96129.93
2018-07-02T05:15:54.271Z,96131.28
2018-07-02T05:18:22.820Z,96131.70
2018-07-02T05:20:51.655Z,96130.23
2018-07-02T05:23:20.191Z,96130.19
2018-07-02T05:25:48.739Z,96127.34
2018-07-02T05:28:17.323Z,96122.13
2018-07-02T05:30:45.876Z,96123.37
2018-07-02T05:33:14.469Z,96122.16
2018-07-02T05:35:43.009Z,96116.06
2018-07-02T05:38:11.530Z,96118.34
2018-07-02T05:40:40.132Z,96118.34
2018-07-02T05:43:08.704Z,96116.72
2018-07-02T05:45:37.261Z,96117.48
2018-07-02T05:48:05.799Z,96120.11
2018-07-02T05:50:34.476Z,96122.42
2018-07-02T05:53:03.092Z,96117.45
2018-07-02T05:55:31.633Z,96114.23
2018-07-02T05:58:00.204Z,96109.84
2018-07-02T06:00:28.904Z,96103.20
2018-07-02T06:02:57.373Z,96110.80
2018-07-02T06:05:28.370Z,96112.73
2018-07-02T06:07:57.127Z,96123.91
2018-07-02T06:10:25.644Z,96115.83
2018-07-02T06:12:54.164Z,96114.81
2018-07-02T06:15:22.697Z,96111.61
2018-07-02T06:17:51.232Z,96101.61
2018-07-02T06:20:19.772Z,96102.77
2018-07-02T06:22:48.305Z,96104.01
2018-07-02T06:25:17.067Z,96097.48
2018-07-02T06:27:45.603Z,96101.11
2018-07-02T06:30:14.129Z,96101.98
2018-07-02T06:32:42.664Z,96091.89
2018-07-02T06:35:11.189Z,96088.64
2018-07-02T06:37:39.784Z,96091.55
2018-07-02T06:40:08.326Z,96083.87
2018-07-02T06:42:37.076Z,96091.17
2018-07-02T06:45:06.056Z,96088.95
2018-07-02T06:47:34.652Z,96097.25
2018-07-02T06:50:03.288Z,96097.79
2018-07-02T06:52:31.836Z,96093.32
2018-07-02T06:55:00.407Z,96096.55
2018-07-02T06:57:28.959Z,96094.27
2018-07-02T06:59:57.515Z,96087.53
2018-07-02T07:02:26.109Z,96089.83
2018-07-02T07:04:54.718Z,96089.17
2018-07-02T07:07:23.401Z,96097.11
2018-07-02T07:09:51.927Z,96092.41
2018-07-02T07:12:20.837Z,96084.80
2018-07-02T07:14:49.387Z,96087.35
2018-07-02T07:17:19.255Z,96094.77
2018-07-02T07:19:47.801Z,96095.25
2018-07-02T07:22:16.480Z,96093.65
2018-07-02T07:24:45.021Z,96094.09
2018-07-02T07:27:13.872Z,96090.63
2018-07-02T07:29:42.464Z,96082.92
2018-07-02T07:32:11.203Z,96081.09
2018-07-02T07:34:39.903Z,96083.23
2018-07-02T07:37:08.505Z,96075.20
2018-07-02T07:39:37.103Z,96077.72
2018-07-02T07:42:06.463Z,96078.41
2018-07-02T07:44:35.506Z,96076.97
2018-07-02T07:47:04.641Z,96078.59
2018-07-02T07:49:33.187Z,96076.31
2018-07-02T07:52:01.860Z,96069.81
2018-07-02T07:54:30.423Z,96067.32
2018-07-02T07:56:59.072Z,96072.34
2018-07-02T07:59:27.662Z,96069.37
2018-07-02T08:01:57.253Z,96069.81
2018-07-02T08:04:25.915Z,96061.76
2018-07-02T08:06:55.679Z,96060.44
2018-07-02T08:09:25.105Z,96061.14
2018-07-02T08:11:54.412Z,96065.47
2018-07-02T08:14:23.719Z,96067.47
2018-07-02T08:16:53.534Z,96073.16
2018-07-02T08:19:22.490Z,96067.94
2018-07-02T08:21:51.525Z,96064.09
2018-07-02T08:24:20.707Z,96060.31
2018-07-02T08:26:49.387Z,96074.33
2018-07-02T08:29:18.283Z,96063.06
2018-07-02T08:31:47.016Z,96071.77
2018-07-02T08:34:16.305Z,96073.92
2018-07-02T08:36:45.314Z,96067.83
2018-07-02T08:39:16.267Z,96066.45
2018-07-02T08:41:44.890Z,96058.46
2018-07-02T08:44:13.635Z,96061.73
2018-07-02T08:46:43.543Z,96060.28
2018-07-02T08:49:13.276Z,96059.50
2018-07-02T08:51:42.121Z,96057.97
2018-07-02T08:54:10.843Z,96058.59
2018-07-02T08:56:39.708Z,96062.63
2018-07-02T08:59:08.455Z,96066.73
2018-07-02T09:01:37.259Z,96063.81
2018-07-02T09:04:06.275Z,96054.69
2018-07-02T09:06:34.911Z,96053.38
2018-07-02T09:09:04.396Z,96055.42
2018-07-02T09:11:33.278Z,96052.19
2018-07-02T09:14:02.076Z,96047.66
2018-07-02T09:16:31.322Z,96049.48
2018-07-02T09:19:00.764Z,96050.70
2018-07-02T09:21:29.400Z,96056.16
2018-07-02T09:23:58.578Z,96053.17
2018-07-02T09:26:27.468Z,96044.80
2018-07-02T09:28:56.389Z,96052.14
2018-07-02T09:31:24.970Z,96044.66
2018-07-02T09:33:53.690Z,96050.11
2018-07-02T09:36:22.747Z,96042.00
2018-07-02T09:38:51.476Z,96042.47
2018-07-02T09:41:21.000Z,96035.39
2018-07-02T09:43:50.272Z,96044.66
2018-07-02T09:46:18.972Z,96050.17
2018-07-02T09:48:47.702Z,96046.65
2018-07-02T09:51:16.532Z,96048.58
2018-07-02T09:53:45.711Z,96050.06
2018-07-02T09:56:14.303Z,96039.39
2018-07-02T09:58:43.220Z,96040.45
2018-07-02T10:01:13.258Z,96052.64
2018-07-02T10:03:42.895Z,96050.84
2018-07-02T10:06:14.015Z,96043.59
2018-07-02T10:08:44.510Z,96041.96
2018-07-02T10:11:13.486Z,96037.55
2018-07-02T10:13:43.650Z,96044.93
2018-07-02T10:16:13.069Z,96039.53
2018-07-02T10:18:42.111Z,96041.66
2018-07-02T10:21:13.220Z,96034.65
2018-07-02T10:23:42.331Z,96035.76
2018-07-02T10:26:10.960Z,96029.66
2018-07-02T10:28:39.697Z,96033.40
2018-07-02T10:31:09.634Z,96031.83
2018-07-02T10:33:38.337Z,96030.69
2018-07-02T10:36:07.861Z,96026.36
2018-07-02T10:38:36.995Z,96023.69
2018-07-02T10:41:06.168Z,96020.45
2018-07-02T10:43:34.707Z,96017.81
2018-07-02T10:46:03.566Z,96013.85
2018-07-02T10:48:32.394Z,96010.55
2018-07-02T10:51:02.187Z,96012.76
2018-07-02T10:53:32.104Z,96011.31
2018-07-02T10:56:00.904Z,96014.41
2018-07-02T10:58:30.195Z,96009.87
2018-07-02T11:00:59.564Z,96008.04
2018-07-02T11:03:29.124Z,96006.36
2018-07-02T11:05:58.479Z,96001.68
2018-07-02T11:08:28.912Z,95999.08
2018-07-02T11:10:57.721Z,95992.81
2018-07-02T11:13:27.341Z,96000.59
2018-07-02T11:15:56.804Z,95999.41
2018-07-02T11:18:25.735Z,95997.48
2018-07-02T11:20:54.980Z,95993.03
2018-07-02T11:23:24.063Z,95992.52
2018-07-02T11:25:53.940Z,95988.20
2018-07-02T11:28:22.680Z,95987.75
2018-07-02T11:30:51.883Z,95984.95
2018-07-02T11:33:22.112Z,95976.39
2018-07-02T11:38:19.540Z,95976.98
2018-07-02T11:40:49.590Z,95974.55
2018-07-02T11:43:18.128Z,95969.72
2018-07-02T11:45:48.435Z,95973.11
2018-07-02T11:50:44.731Z,95972.50
2018-07-02T11:53:14.280Z,95971.33
2018-07-02T11:55:43.618Z,95968.96
2018-07-02T11:58:13.028Z,95967.72
2018-07-02T12:00:42.713Z,95963.12
2018-07-02T12:03:11.612Z,95969.03
2018-07-02T12:05:41.377Z,95966.52
2018-07-02T12:08:11.705Z,95959.36
2018-07-02T12:10:42.056Z,95965.49
2018-07-02T12:13:11.135Z,95962.19
2018-07-02T12:15:39.874Z,95958.86
2018-07-02T12:18:08.663Z,95952.45
2018-07-02T12:20:37.403Z,95952.36
2018-07-02T12:23:07.924Z,95954.27
2018-07-02T12:25:36.828Z,95960.17
2018-07-02T12:28:05.828Z,95957.11
2018-07-02T12:30:35.176Z,95957.09
2018-07-02T12:33:03.856Z,95958.72
2018-07-02T12:35:32.400Z,95943.59
2018-07-02T12:38:01.171Z,95947.78
2018-07-02T12:40:29.868Z,95948.69
2018-07-02T12:42:59.156Z,95954.72
2018-07-02T12:45:27.876Z,95955.58
2018-07-02T12:47:56.778Z,95957.66
2018-07-02T12:50:26.046Z,95957.16
2018-07-02T12:52:55.339Z,95951.84
2018-07-02T12:55:23.905Z,95947.17
2018-07-02T12:57:52.511Z,95943.38
2018-07-02T13:00:22.608Z,95944.94
2018-07-02T13:02:51.307Z,95944.94
2018-07-02T13:05:19.992Z,95945.76
2018-07-02T13:07:48.680Z,95949.70
2018-07-02T13:10:18.201Z,95952.38
2018-07-02T13:12:47.653Z,95948.28
2018-07-02T13:15:16.270Z,95952.24
2018-07-02T13:17:44.848Z,95961.33
2018-07-02T13:20:13.411Z,95962.24
2018-07-02T13:22:41.936Z,95963.78
2018-07-02T13:25:10.492Z,95965.88
2018-07-02T13:27:39.081Z,95966.83
2018-07-02T13:30:07.768Z,95958.12
2018-07-02T13:32:36.315Z,95957.91
2018-07-02T13:35:05.084Z,95951.83
2018-07-02T13:37:33.881Z,95951.64
2018-07-02T13:40:02.572Z,95950.55
2018-07-02T13:42:31.112Z,95947.34
2018-07-02T13:44:59.645Z,95955.41
2018-07-02T13:47:28.217Z,95947.39
2018-07-02T13:49:56.808Z,95941.13
2018-07-02T13:52:25.383Z,95948.42
2018-07-02T13:54:53.915Z,95940.67
2018-07-02T13:57:22.447Z,95944.70
2018-07-02T13:59:51.057Z,95936.82
2018-07-02T14:02:19.876Z,95930.25
2018-07-02T14:04:48.665Z,95937.75
2018-07-02T14:07:17.214Z,95938.71
2018-07-02T14:09:45.829Z,95933.83
2018-07-02T14:12:14.503Z,95932.05
2018-07-02T14:14:43.228Z,95937.55
2018-07-02T14:17:12.629Z,95930.11
2018-07-02T14:19:42.065Z,95927.12
2018-07-02T14:22:11.428Z,95930.84
2018-07-02T14:24:40.012Z,95930.70
2018-07-02T14:27:10.288Z,95935.78
2018-07-02T14:29:38.839Z,95932.59
2018-07-02T14:32:07.408Z,95942.30
2018-07-02T14:34:35.955Z,95935.53
2018-07-02T14:37:04.515Z,95942.53
2018-07-02T14:39:33.125Z,95937.38
2018-07-02T14:42:01.666Z,95938.55
2018-07-02T14:44:30.310Z,95938.19
2018-07-02T14:46:58.888Z,95933.83
2018-07-02T14:49:27.485Z,95936.88
2018-07-02T14:51:56.263Z,95934.41
2018-07-02T14:54:24.861Z,95931.65
2018-07-02T14:56:53.485Z,95928.21
2018-07-02T14:59:22.123Z,95931.78
2018-07-02T15:01:50.741Z,95930.84
2018-07-02T15:04:19.411Z,95933.60
2018-07-02T15:06:48.035Z,95937.59
2018-07-02T15:09:16.582Z,95929.59
2018-07-02T15:11:45.143Z,95930.76
2018-07-02T15:14:13.735Z,95927.11
2018-07-02T15:16:42.273Z,95923.76
2018-07-02T15:19:10.864Z,95930.06
2018-07-02T15:21:39.405Z,95938.63
2018-07-02T15:24:08.083Z,95931.33
2018-07-02T15:26:36.651Z,95924.37
2018-07-02T15:29:05.351Z,95926.77
2018-07-02T15:31:33.956Z,95928.06
2018-07-02T15:34:02.735Z,95932.47
2018-07-02T15:36:31.285Z,95932.97
2018-07-02T15:38:59.855Z,95940.81
2018-07-02T15:41:28.603Z,95936.73
2018-07-02T15:43:57.415Z,95946.07
2018-07-02T15:46:26.042Z,95946.53
2018-07-02T15:48:54.595Z,95948.29
2018-07-02T15:51:23.245Z,95947.42
2018-07-02T15:53:51.764Z,95946.47
2018-07-02T15:56:20.450Z,95944.53
2018-07-02T15:58:49.040Z,95943.03
2018-07-02T16:01:17.688Z,95945.84
2018-07-02T16:03:46.233Z,95947.50
2018-07-02T16:06:15.041Z,95955.58
2018-07-02T16:08:44.412Z,95944.11
2018-07-02T16:11:15.159Z,95946.09
2018-07-02T16:13:43.874Z,95947.70
2018-07-02T16:16:12.483Z,95949.28
2018-07-02T16:18:41.071Z,95951.86
2018-07-02T16:21:09.653Z,95951.26
2018-07-02T16:23:38.242Z,95951.77
2018-07-02T16:26:06.814Z,95948.53
2018-07-02T16:28:35.636Z,95950.07
2018-07-02T16:31:04.298Z,95952.56
2018-07-02T16:33:33.338Z,95952.02
2018-07-02T16:36:02.064Z,95951.09
2018-07-02T16:38:31.021Z,95950.00
2018-07-02T16:40:59.608Z,95950.22
2018-07-02T16:43:29.169Z,95954.93
2018-07-02T16:45:57.785Z,95957.20
2018-07-02T16:48:26.355Z,95962.19
2018-07-02T16:50:54.916Z,95962.48
2018-07-02T16:53:23.679Z,95962.55
2018-07-02T16:55:52.261Z,95960.80
2018-07-02T16:58:20.898Z,95965.20
2018-07-02T17:00:49.439Z,95965.74
2018-07-02T17:03:17.992Z,95968.25
2018-07-02T17:05:46.871Z,95957.27
2018-07-02T17:08:15.501Z,95962.94
2018-07-02T17:10:44.300Z,95961.31
2018-07-02T17:13:13.676Z,95959.17
2018-07-02T17:15:42.197Z,95956.89
2018-07-02T17:18:10.736Z,95963.83
2018-07-02T17:20:39.415Z,95966.12
2018-07-02T17:23:08.068Z,95970.23
2018-07-02T17:25:36.620Z,95969.45
2018-07-02T17:28:05.522Z,95976.18
2018-07-02T17:30:34.100Z,95974.39
2018-07-02T17:33:02.635Z,95972.89
2018-07-02T17:35:31.252Z,95975.84
2018-07-02T17:37:59.866Z,95971.41
2018-07-02T17:40:28.535Z,95974.17
2018-07-02T17:42:57.147Z,95976.51
2018-07-02T17:45:25.884Z,95981.52
2018-07-02T17:47:54.559Z,95984.90
2018-07-02T17:50:23.453Z,95988.81
2018-07-02T17:52:51.992Z,95990.87
2018-07-02T17:55:21.743Z,95994.36
2018-07-02T17:57:52.249Z,95993.82
2018-07-02T18:00:21.296Z,95997.67
2018-07-02T18:02:50.177Z,95994.05
2018-07-02T18:05:19.889Z,95997.48
2018-07-02T18:07:48.550Z,95995.81
2018-07-02T18:10:18.253Z,95999.72
2018-07-02T18:12:47.504Z,96005.58
2018-07-02T18:15:16.615Z,96007.66
2018-07-02T18:17:45.367Z,96008.05
2018-07-02T18:20:14.811Z,96011.09
2018-07-02T18:22:44.513Z,96010.36
2018-07-02T18:25:13.208Z,96022.28
2018-07-02T18:27:41.899Z,96024.90
2018-07-02T18:30:10.763Z,96021.78
2018-07-02T18:32:39.830Z,96023.00
2018-07-02T18:35:08.572Z,96026.12
2018-07-02T18:37:38.064Z,96026.93
2018-07-02T18:40:07.532Z,96030.12
2018-07-02T18:42:36.275Z,96028.61
2018-07-02T18:45:05.355Z,96028.39
2018-07-02T18:47:35.607Z,96031.38
2018-07-02T18:50:04.532Z,96037.89
2018-07-02T18:52:33.675Z,96034.55
2018-07-02T18:55:02.404Z,96040.49
2018-07-02T18:57:31.619Z,96046.41
2018-07-02T19:00:00.301Z,96053.05
2018-07-02T19:02:29.415Z,96054.14
2018-07-02T19:04:58.187Z,96063.03
2018-07-02T19:07:27.082Z,96054.64
2018-07-02T19:09:55.664Z,96069.30
2018-07-02T19:12:24.387Z,96069.31
2018-07-02T19:14:53.632Z,96069.61
2018-07-02T19:17:22.321Z,96068.66
2018-07-02T19:19:51.795Z,96069.95
2018-07-02T19:22:21.331Z,96080.02
2018-07-02T19:24:50.040Z,96082.33
2018-07-02T19:27:18.908Z,96083.64
2018-07-02T19:29:47.682Z,96089.32
2018-07-02T19:32:16.528Z,96091.59
2018-07-02T19:34:45.896Z,96096.77
2018-07-02T19:37:14.901Z,96097.10
2018-07-02T19:39:44.527Z,96098.72
2018-07-02T19:42:13.471Z,96098.08
2018-07-02T19:44:42.169Z,96102.94
2018-07-02T19:47:11.609Z,96102.44
2018-07-02T19:49:40.156Z,96105.21
2018-07-02T19:52:09.016Z,96107.30
2018-07-02T19:54:37.895Z,96107.64
2018-07-02T19:57:06.976Z,96106.02
2018-07-02T19:59:35.692Z,96110.06
2018-07-02T20:02:04.661Z,96114.05
2018-07-02T20:04:33.219Z,96115.48
2018-07-02T20:07:02.976Z,96116.28
2018-07-02T20:09:31.680Z,96120.16
2018-07-02T20:12:00.500Z,96114.37
2018-07-02T20:14:29.060Z,96115.81
2018-07-02T20:16:57.727Z,96118.23
2018-07-02T20:19:26.411Z,96120.80
2018-07-02T20:21:56.175Z,96116.42
2018-07-02T20:24:25.016Z,96117.06
2018-07-02T20:26:53.957Z,96118.14
2018-07-02T20:29:23.816Z,96120.05
2018-07-02T20:31:52.523Z,96121.84
2018-07-02T20:34:21.397Z,96112.28
2018-07-02T20:36:50.856Z,96122.63
2018-07-02T20:39:20.356Z,96127.52
2018-07-02T20:41:49.504Z,96128.81
2018-07-02T20:44:18.171Z,96135.15
2018-07-02T20:46:47.079Z,96132.25
2018-07-02T20:49:16.580Z,96141.15
2018-07-02T20:51:45.140Z,96134.02
2018-07-02T20:54:14.944Z,96134.97
2018-07-02T20:56:43.663Z,96136.27
2018-07-02T20:59:12.278Z,96133.33
2018-07-02T21:01:40.994Z,96140.47
2018-07-02T21:04:10.504Z,96139.45
2018-07-02T21:06:40.285Z,96143.50
2018-07-02T21:09:11.441Z,96141.55
2018-07-02T21:11:40.669Z,96140.20
2018-07-02T21:14:09.341Z,96138.75
2018-07-02T21:16:38.148Z,96145.19
2018-07-02T21:19:07.164Z,96141.45
2018-07-02T21:21:35.857Z,96142.27
2018-07-02T21:24:05.506Z,96138.96
2018-07-02T21:26:35.341Z,96142.65
2018-07-02T21:29:04.831Z,96135.75
2018-07-02T21:31:34.535Z,96142.53
2018-07-02T21:34:03.619Z,96145.78
2018-07-02T21:36:32.200Z,96143.05
2018-07-02T21:39:01.600Z,96140.77
2018-07-02T21:41:30.504Z,96148.29
2018-07-02T21:43:59.473Z,96143.41
2018-07-02T21:46:28.984Z,96144.30
2018-07-02T21:48:57.688Z,96146.69
2018-07-02T21:51:27.289Z,96145.08
2018-07-02T21:53:55.899Z,96140.73
2018-07-02T21:56:25.151Z,96131.69
2018-07-02T21:58:54.623Z,96130.05
2018-07-02T22:01:24.710Z,96130.03
2018-07-02T22:03:54.532Z,96137.23
2018-07-02T22:06:24.989Z,96129.63
2018-07-02T22:08:54.947Z,96134.59
2018-07-02T22:11:23.830Z,96140.22
2018-07-02T22:13:53.204Z,96135.36
2018-07-02T22:16:22.797Z,96144.39
2018-07-02T22:18:51.540Z,96146.76
2018-07-02T22:21:20.195Z,96151.75
2018-07-02T22:23:48.890Z,96148.59
2018-07-02T22:26:17.571Z,96154.17
2018-07-02T22:28:51.567Z,96162.32
2018-07-02T22:31:21.723Z,96158.67
2018-07-02T22:33:52.069Z,96157.61
2018-07-02T22:36:20.609Z,96158.73
2018-07-02T22:38:49.180Z,96157.44
2018-07-02T22:41:17.724Z,96160.64
2018-07-02T22:43:46.346Z,96151.90
2018-07-02T22:46:15.027Z,96147.36
2018-07-02T22:48:43.604Z,96154.84
2018-07-02T22:51:12.154Z,96156.02
2018-07-02T22:53:40.716Z,96158.11
2018-07-02T22:56:09.241Z,96156.86
2018-07-02T22:58:37.804Z,96164.83
2018-07-02T23:01:06.380Z,96162.02
2018-07-02T23:03:34.939Z,96166.09
2018-07-02T23:06:03.520Z,96161.88
2018-07-02T23:08:32.059Z,96167.39
2018-07-02T23:11:00.600Z,96162.84
2018-07-02T23:13:29.259Z,96163.84
2018-07-02T23:16:02.329Z,96158.67
2018-07-02T23:18:32.213Z,96155.86
2018-07-02T23:21:00.899Z,96150.23
2018-07-02T23:23:29.630Z,96152.08
2018-07-02T23:25:58.207Z,96154.80
2018-07-02T23:28:26.766Z,96150.19
2018-07-02T23:30:55.331Z,96147.22
2018-07-02T23:33:23.909Z,96142.89
2018-07-02T23:35:52.467Z,96143.72
2018-07-02T23:38:21.005Z,96141.91
2018-07-02T23:40:51.439Z,96139.29
2018-07-02T23:43:20.716Z,96135.06
2018-07-02T23:45:49.262Z,96135.56
2018-07-02T23:48:18.620Z,96144.73
2018-07-02T23:50:48.284Z,96144.95
2018-07-02T23:53:17.539Z,96137.22
2018-07-02T23:55:46.091Z,96149.61
2018-07-02T23:58:14.677Z,96146.09
